Aviation Digital Data Service (ADDS)

Output produced by METARs form (1731 UTC 19 April 2015)
found at http://www.aviationweather.gov/adds/metars/
 
KCMI 191722Z 1918/2018 06009KT 4SM -RA BR OVC020 
     FM200300 27012KT 4SM BR VCSH OVC025 
     FM200600 24006KT 5SM BR VCSH OVC015 
     FM200900 28011KT P6SM OVC009 
     FM201400 31015KT P6SM SCT015 BKN200